Aérodrome :
LOGIN :

S'inscrire | Disclaimer

   EN    FR    IT 

 










Légende :    VFR   VFR Marginal   IFR   IFR Intensif   IFR Très Intensif
Visi : 
Plafond : 
>= 8 km
>= 3000ft
5 à 8 km
1000 à 3000 ft
1500m à 5 km
500 à 1000 ft
800 à 1500m
200 à 500 ft
< 800m
< 200 ft
Symboles :   Orages  Brouillard  Fortes neiges  Fortes précipitations  Vent > 20 kt
SIGMETs :   Divers  Orages  Givrage  Turbulence  Onde Orograph.  Cendres Volcan.






- Altitude de l'aérodrome : 101 ft
- Code IATA : GLO


EGBJ - Gloucestershire

DERNIER METAR :
  • 091020Z 19010KT 9999 FEW011 SCT030 18/16 Q1010

METARs EXPIRÉS :
  • 090950Z 21011KT 9999 SCT010 BKN012 BKN016 19/16 Q1010
  • 090920Z 20011KT 9999 FEW008 BKN011 BKN016 19/17 Q1010
  • 090850Z 20008KT 9999 FEW008 SCT011 18/17 Q1010
  • 090820Z 19009KT 9999 VCSH BKN006 BKN010 17/16 Q1010
  • 090750Z 19006KT 9999 VCSH BKN005 BKN010 16/16 Q1011

TAF TAF EGBJ
Valide du 09 à 09h jusqu'au 09 à 17h UTC


090833Z 0909/0917 23011KT 9999 BKN006
BECMG 0909/0912 FEW010 BKN015
PROB40
TEMPO 0909/0917 4000 RADZ
TEMPO 0912/0917 BKN012



MET'MAP, la Météo Aéronautique d'un coup d'oeil ! - Copyright ORBIFLY Décembre 2007 - Disclaimer

ORBIFLY MET'MAP TEAM :

Programmation & Développement : Alexandra Zaïnal
Sur une idée originale de : Baudouin d'Aumeries
Assistance à la programmation : Marc-Olivier Méhu
Soutien technique & logistique : Manuel Goepfert

Contact : metmap@orbifly.com




SOURCES & CREDITS :

   NOAA